sensor_id;sensor_type;location;lat;lon;timestamp;P1;durP1;ratioP1;P2;durP2;ratioP2
24273;SDS011;12392;42.678;23.380;2024-03-23T00:54:53;39.72;;;14.20;;
24273;SDS011;12392;42.678;23.380;2024-03-23T00:57:19;29.15;;;14.23;;
24273;SDS011;12392;42.678;23.380;2024-03-23T00:59:44;27.58;;;14.85;;
24273;SDS011;12392;42.678;23.380;2024-03-23T01:02:10;10.77;;;6.97;;
24273;SDS011;12392;42.678;23.380;2024-03-23T01:04:36;34.70;;;16.60;;
24273;SDS011;12392;42.678;23.380;2024-03-23T01:07:01;31.85;;;15.82;;
24273;SDS011;12392;42.678;23.380;2024-03-23T01:09:27;33.95;;;15.07;;
24273;SDS011;12392;42.678;23.380;2024-03-23T01:11:52;32.55;;;15.77;;
24273;SDS011;12392;42.678;23.380;2024-03-23T01:14:18;14.50;;;8.50;;
24273;SDS011;12392;42.678;23.380;2024-03-23T01:16:44;24.08;;;12.85;;
24273;SDS011;12392;42.678;23.380;2024-03-23T01:19:09;25.00;;;14.02;;
24273;SDS011;12392;42.678;23.380;2024-03-23T01:21:35;27.77;;;14.45;;
24273;SDS011;12392;42.678;23.380;2024-03-23T01:24:01;32.50;;;13.27;;
24273;SDS011;12392;42.678;23.380;2024-03-23T01:26:26;30.08;;;12.73;;
24273;SDS011;12392;42.678;23.380;2024-03-23T01:28:52;25.65;;;14.30;;
24273;SDS011;12392;42.678;23.380;2024-03-23T01:31:18;24.30;;;11.95;;
24273;SDS011;12392;42.678;23.380;2024-03-23T01:33:43;27.38;;;10.35;;
24273;SDS011;12392;42.678;23.380;2024-03-23T01:36:09;23.00;;;11.20;;
24273;SDS011;12392;42.678;23.380;2024-03-23T01:38:34;27.65;;;14.02;;
24273;SDS011;12392;42.678;23.380;2024-03-23T01:41:01;27.98;;;13.95;;
24273;SDS011;12392;42.678;23.380;2024-03-23T01:43:26;22.90;;;12.20;;
24273;SDS011;12392;42.678;23.380;2024-03-23T01:45:52;20.27;;;11.38;;
24273;SDS011;12392;42.678;23.380;2024-03-23T01:48:19;32.58;;;13.05;;
24273;SDS011;12392;42.678;23.380;2024-03-23T01:50:45;25.45;;;13.00;;
24273;SDS011;12392;42.678;23.380;2024-03-23T01:53:11;24.85;;;14.27;;
24273;SDS011;12392;42.678;23.380;2024-03-23T01:55:37;33.80;;;17.27;;
24273;SDS011;12392;42.678;23.380;2024-03-23T01:58:04;32.78;;;18.70;;
24273;SDS011;12392;42.678;23.380;2024-03-23T02:00:29;46.65;;;24.10;;
24273;SDS011;12392;42.678;23.380;2024-03-23T02:02:55;39.42;;;21.25;;
24273;SDS011;12392;42.678;23.380;2024-03-23T02:05:21;32.38;;;18.17;;
24273;SDS011;12392;42.678;23.380;2024-03-23T02:07:47;34.53;;;14.48;;
24273;SDS011;12392;42.678;23.380;2024-03-23T02:10:13;35.53;;;13.95;;
24273;SDS011;12392;42.678;23.380;2024-03-23T02:12:38;25.35;;;13.40;;
24273;SDS011;12392;42.678;23.380;2024-03-23T02:15:04;96.35;;;16.95;;
24273;SDS011;12392;42.678;23.380;2024-03-23T02:17:30;91.00;;;17.83;;
24273;SDS011;12392;42.678;23.380;2024-03-23T02:19:59;49.70;;;18.48;;
24273;SDS011;12392;42.678;23.380;2024-03-23T02:22:25;52.80;;;19.80;;
24273;SDS011;12392;42.678;23.380;2024-03-23T02:24:59;51.85;;;21.70;;
24273;SDS011;12392;42.678;23.380;2024-03-23T02:27:25;49.80;;;21.85;;
24273;SDS011;12392;42.678;23.380;2024-03-23T02:29:51;64.55;;;28.75;;
24273;SDS011;12392;42.678;23.380;2024-03-23T02:32:16;54.78;;;26.48;;
24273;SDS011;12392;42.678;23.380;2024-03-23T02:34:42;56.42;;;28.60;;
24273;SDS011;12392;42.678;23.380;2024-03-23T02:37:11;58.65;;;28.23;;
24273;SDS011;12392;42.678;23.380;2024-03-23T02:39:36;58.78;;;28.13;;
24273;SDS011;12392;42.678;23.380;2024-03-23T02:42:02;52.80;;;27.85;;
24273;SDS011;12392;42.678;23.380;2024-03-23T02:44:28;53.72;;;25.98;;
24273;SDS011;12392;42.678;23.380;2024-03-23T02:46:54;50.25;;;26.65;;
24273;SDS011;12392;42.678;23.380;2024-03-23T02:49:19;54.55;;;22.95;;
24273;SDS011;12392;42.678;23.380;2024-03-23T02:51:46;57.70;;;26.83;;
24273;SDS011;12392;42.678;23.380;2024-03-23T02:54:13;52.38;;;25.08;;
24273;SDS011;12392;42.678;23.380;2024-03-23T02:56:39;41.47;;;21.10;;
24273;SDS011;12392;42.678;23.380;2024-03-23T02:59:04;56.92;;;24.25;;
24273;SDS011;12392;42.678;23.380;2024-03-23T03:01:30;55.95;;;26.25;;
24273;SDS011;12392;42.678;23.380;2024-03-23T03:03:56;54.13;;;26.45;;
24273;SDS011;12392;42.678;23.380;2024-03-23T03:06:25;53.15;;;28.42;;
24273;SDS011;12392;42.678;23.380;2024-03-23T03:08:50;57.53;;;28.25;;
24273;SDS011;12392;42.678;23.380;2024-03-23T03:11:16;56.03;;;27.95;;
24273;SDS011;12392;42.678;23.380;2024-03-23T03:13:42;65.70;;;32.25;;
24273;SDS011;12392;42.678;23.380;2024-03-23T03:16:10;40.60;;;19.83;;
24273;SDS011;12392;42.678;23.380;2024-03-23T03:18:36;41.75;;;22.40;;
24273;SDS011;12392;42.678;23.380;2024-03-23T03:21:02;42.20;;;24.00;;
24273;SDS011;12392;42.678;23.380;2024-03-23T03:23:30;36.90;;;21.95;;
24273;SDS011;12392;42.678;23.380;2024-03-23T03:25:55;47.63;;;23.38;;
24273;SDS011;12392;42.678;23.380;2024-03-23T03:28:22;39.50;;;21.10;;
24273;SDS011;12392;42.678;23.380;2024-03-23T03:30:47;37.67;;;20.45;;
24273;SDS011;12392;42.678;23.380;2024-03-23T03:33:13;35.13;;;19.60;;
24273;SDS011;12392;42.678;23.380;2024-03-23T03:35:39;35.20;;;20.02;;
24273;SDS011;12392;42.678;23.380;2024-03-23T03:38:04;34.22;;;19.63;;
24273;SDS011;12392;42.678;23.380;2024-03-23T03:40:30;34.25;;;19.35;;
24273;SDS011;12392;42.678;23.380;2024-03-23T03:42:55;39.50;;;20.95;;
24273;SDS011;12392;42.678;23.380;2024-03-23T03:45:21;38.63;;;20.38;;
24273;SDS011;12392;42.678;23.380;2024-03-23T03:47:47;41.72;;;22.33;;
24273;SDS011;12392;42.678;23.380;2024-03-23T03:50:12;38.90;;;21.05;;
24273;SDS011;12392;42.678;23.380;2024-03-23T03:52:38;39.00;;;20.40;;
24273;SDS011;12392;42.678;23.380;2024-03-23T03:55:04;41.20;;;23.02;;
24273;SDS011;12392;42.678;23.380;2024-03-23T03:57:38;48.22;;;24.08;;
24273;SDS011;12392;42.678;23.380;2024-03-23T04:00:03;49.92;;;26.17;;
24273;SDS011;12392;42.678;23.380;2024-03-23T04:02:30;44.05;;;23.90;;
24273;SDS011;12392;42.678;23.380;2024-03-23T04:04:55;44.70;;;23.17;;
24273;SDS011;12392;42.678;23.380;2024-03-23T04:07:21;36.17;;;21.63;;
24273;SDS011;12392;42.678;23.380;2024-03-23T04:09:48;37.15;;;21.75;;
24273;SDS011;12392;42.678;23.380;2024-03-23T04:12:14;32.22;;;18.35;;
24273;SDS011;12392;42.678;23.380;2024-03-23T04:14:40;34.33;;;19.02;;
24273;SDS011;12392;42.678;23.380;2024-03-23T04:17:06;38.78;;;20.23;;
24273;SDS011;12392;42.678;23.380;2024-03-23T04:19:32;38.95;;;19.77;;
24273;SDS011;12392;42.678;23.380;2024-03-23T04:21:57;33.10;;;19.45;;
24273;SDS011;12392;42.678;23.380;2024-03-23T04:24:23;33.58;;;19.30;;
24273;SDS011;12392;42.678;23.380;2024-03-23T04:26:51;31.10;;;17.92;;
24273;SDS011;12392;42.678;23.380;2024-03-23T04:29:16;37.45;;;20.85;;
24273;SDS011;12392;42.678;23.380;2024-03-23T04:31:42;34.60;;;19.98;;
24273;SDS011;12392;42.678;23.380;2024-03-23T04:34:08;34.83;;;21.05;;
24273;SDS011;12392;42.678;23.380;2024-03-23T04:36:34;37.63;;;20.90;;
24273;SDS011;12392;42.678;23.380;2024-03-23T04:38:59;33.35;;;18.88;;
24273;SDS011;12392;42.678;23.380;2024-03-23T04:41:25;32.63;;;19.92;;
24273;SDS011;12392;42.678;23.380;2024-03-23T04:43:51;32.20;;;18.23;;
24273;SDS011;12392;42.678;23.380;2024-03-23T04:46:17;34.80;;;19.38;;
24273;SDS011;12392;42.678;23.380;2024-03-23T04:48:43;30.40;;;15.70;;
24273;SDS011;12392;42.678;23.380;2024-03-23T04:51:09;26.92;;;12.77;;
24273;SDS011;12392;42.678;23.380;2024-03-23T04:53:37;28.25;;;15.40;;
24273;SDS011;12392;42.678;23.380;2024-03-23T04:56:03;27.40;;;16.10;;
24273;SDS011;12392;42.678;23.380;2024-03-23T04:58:29;33.90;;;15.32;;
24273;SDS011;12392;42.678;23.380;2024-03-23T05:00:55;28.58;;;14.68;;
24273;SDS011;12392;42.678;23.380;2024-03-23T05:03:21;26.95;;;14.80;;
24273;SDS011;12392;42.678;23.380;2024-03-23T05:05:47;43.60;;;20.33;;
24273;SDS011;12392;42.678;23.380;2024-03-23T05:08:13;41.95;;;19.70;;
24273;SDS011;12392;42.678;23.380;2024-03-23T05:10:41;30.52;;;13.10;;
24273;SDS011;12392;42.678;23.380;2024-03-23T05:13:07;23.20;;;11.05;;
24273;SDS011;12392;42.678;23.380;2024-03-23T05:15:33;24.15;;;11.27;;
24273;SDS011;12392;42.678;23.380;2024-03-23T05:17:59;25.70;;;11.05;;
24273;SDS011;12392;42.678;23.380;2024-03-23T05:20:24;19.85;;;10.50;;
24273;SDS011;12392;42.678;23.380;2024-03-23T05:22:50;44.67;;;11.80;;
24273;SDS011;12392;42.678;23.380;2024-03-23T05:25:15;22.20;;;10.48;;
24273;SDS011;12392;42.678;23.380;2024-03-23T05:27:41;29.08;;;11.80;;
24273;SDS011;12392;42.678;23.380;2024-03-23T05:30:07;30.27;;;12.75;;
24273;SDS011;12392;42.678;23.380;2024-03-23T05:32:34;27.73;;;12.57;;
24273;SDS011;12392;42.678;23.380;2024-03-23T05:35:00;24.45;;;11.77;;
24273;SDS011;12392;42.678;23.380;2024-03-23T05:37:26;24.88;;;11.57;;
24273;SDS011;12392;42.678;23.380;2024-03-23T05:39:52;19.33;;;11.00;;
24273;SDS011;12392;42.678;23.380;2024-03-23T05:42:17;21.40;;;11.57;;
24273;SDS011;12392;42.678;23.380;2024-03-23T05:44:46;22.98;;;11.93;;
24273;SDS011;12392;42.678;23.380;2024-03-23T05:47:12;22.00;;;11.65;;
24273;SDS011;12392;42.678;23.380;2024-03-23T05:49:41;24.70;;;13.35;;
24273;SDS011;12392;42.678;23.380;2024-03-23T05:52:10;21.13;;;12.57;;
24273;SDS011;12392;42.678;23.380;2024-03-23T05:54:36;21.20;;;12.68;;
24273;SDS011;12392;42.678;23.380;2024-03-23T05:57:02;24.88;;;12.80;;
24273;SDS011;12392;42.678;23.380;2024-03-23T05:59:28;18.33;;;11.63;;
24273;SDS011;12392;42.678;23.380;2024-03-23T06:01:54;21.08;;;12.88;;
24273;SDS011;12392;42.678;23.380;2024-03-23T06:04:20;23.30;;;12.98;;
24273;SDS011;12392;42.678;23.380;2024-03-23T06:06:46;33.40;;;18.08;;
24273;SDS011;12392;42.678;23.380;2024-03-23T06:09:12;36.47;;;18.80;;
24273;SDS011;12392;42.678;23.380;2024-03-23T06:11:37;33.45;;;18.10;;
24273;SDS011;12392;42.678;23.380;2024-03-23T06:14:03;35.05;;;20.85;;
24273;SDS011;12392;42.678;23.380;2024-03-23T06:16:29;31.90;;;18.98;;
24273;SDS011;12392;42.678;23.380;2024-03-23T06:18:55;24.25;;;15.05;;
24273;SDS011;12392;42.678;23.380;2024-03-23T06:21:21;23.00;;;13.57;;
24273;SDS011;12392;42.678;23.380;2024-03-23T06:23:51;24.10;;;11.85;;
24273;SDS011;12392;42.678;23.380;2024-03-23T06:26:20;22.65;;;12.25;;
24273;SDS011;12392;42.678;23.380;2024-03-23T06:28:46;25.00;;;12.27;;
24273;SDS011;12392;42.678;23.380;2024-03-23T06:31:12;21.80;;;11.65;;
24273;SDS011;12392;42.678;23.380;2024-03-23T06:33:38;20.20;;;11.55;;
24273;SDS011;12392;42.678;23.380;2024-03-23T06:36:05;20.13;;;13.00;;
24273;SDS011;12392;42.678;23.380;2024-03-23T06:38:31;22.58;;;11.90;;
24273;SDS011;12392;42.678;23.380;2024-03-23T06:40:57;17.58;;;11.27;;
24273;SDS011;12392;42.678;23.380;2024-03-23T06:43:22;22.52;;;11.52;;
24273;SDS011;12392;42.678;23.380;2024-03-23T06:45:52;20.80;;;10.75;;
24273;SDS011;12392;42.678;23.380;2024-03-23T06:48:18;26.33;;;11.88;;
24273;SDS011;12392;42.678;23.380;2024-03-23T06:50:45;21.02;;;10.90;;
24273;SDS011;12392;42.678;23.380;2024-03-23T06:53:11;21.95;;;10.40;;
24273;SDS011;12392;42.678;23.380;2024-03-23T06:55:37;18.48;;;10.93;;
24273;SDS011;12392;42.678;23.380;2024-03-23T06:58:03;20.42;;;10.45;;
24273;SDS011;12392;42.678;23.380;2024-03-23T07:00:29;16.80;;;10.07;;
24273;SDS011;12392;42.678;23.380;2024-03-23T07:02:55;21.17;;;10.43;;
24273;SDS011;12392;42.678;23.380;2024-03-23T07:05:20;21.10;;;10.70;;
24273;SDS011;12392;42.678;23.380;2024-03-23T07:07:46;16.42;;;10.40;;
24273;SDS011;12392;42.678;23.380;2024-03-23T07:10:12;16.98;;;10.23;;
24273;SDS011;12392;42.678;23.380;2024-03-23T07:12:38;25.67;;;10.05;;
24273;SDS011;12392;42.678;23.380;2024-03-23T07:15:03;19.85;;;11.32;;
24273;SDS011;12392;42.678;23.380;2024-03-23T07:17:29;23.30;;;10.27;;
24273;SDS011;12392;42.678;23.380;2024-03-23T07:19:55;23.73;;;11.30;;
24273;SDS011;12392;42.678;23.380;2024-03-23T07:22:21;23.40;;;11.23;;
24273;SDS011;12392;42.678;23.380;2024-03-23T07:24:46;21.45;;;10.55;;
24273;SDS011;12392;42.678;23.380;2024-03-23T07:27:12;23.77;;;10.70;;
24273;SDS011;12392;42.678;23.380;2024-03-23T07:29:38;19.05;;;10.25;;
24273;SDS011;12392;42.678;23.380;2024-03-23T07:32:03;19.33;;;10.25;;
24273;SDS011;12392;42.678;23.380;2024-03-23T07:34:29;24.80;;;11.10;;
24273;SDS011;12392;42.678;23.380;2024-03-23T07:36:55;19.65;;;10.23;;
24273;SDS011;12392;42.678;23.380;2024-03-23T07:39:20;17.50;;;9.55;;
24273;SDS011;12392;42.678;23.380;2024-03-23T07:41:46;23.80;;;8.95;;
24273;SDS011;12392;42.678;23.380;2024-03-23T07:44:12;19.17;;;9.73;;
24273;SDS011;12392;42.678;23.380;2024-03-23T07:46:38;18.20;;;9.93;;
24273;SDS011;12392;42.678;23.380;2024-03-23T07:49:06;17.98;;;10.18;;
24273;SDS011;12392;42.678;23.380;2024-03-23T07:51:32;24.15;;;9.90;;
24273;SDS011;12392;42.678;23.380;2024-03-23T07:54:00;19.42;;;10.35;;
24273;SDS011;12392;42.678;23.380;2024-03-23T07:56:25;19.75;;;10.30;;
24273;SDS011;12392;42.678;23.380;2024-03-23T07:58:51;17.83;;;10.90;;
24273;SDS011;12392;42.678;23.380;2024-03-23T08:01:16;21.30;;;9.73;;
24273;SDS011;12392;42.678;23.380;2024-03-23T08:03:43;18.70;;;10.02;;
24273;SDS011;12392;42.678;23.380;2024-03-23T08:06:10;16.17;;;10.40;;
24273;SDS011;12392;42.678;23.380;2024-03-23T08:08:40;19.58;;;10.38;;
24273;SDS011;12392;42.678;23.380;2024-03-23T08:11:07;22.13;;;10.98;;
24273;SDS011;12392;42.678;23.380;2024-03-23T08:13:33;20.27;;;11.00;;
24273;SDS011;12392;42.678;23.380;2024-03-23T08:15:59;21.77;;;11.23;;
24273;SDS011;12392;42.678;23.380;2024-03-23T08:18:25;22.90;;;11.32;;
24273;SDS011;12392;42.678;23.380;2024-03-23T08:23:24;22.45;;;12.23;;
24273;SDS011;12392;42.678;23.380;2024-03-23T08:25:50;25.27;;;11.82;;
24273;SDS011;12392;42.678;23.380;2024-03-23T08:28:16;20.23;;;11.27;;
24273;SDS011;12392;42.678;23.380;2024-03-23T08:30:42;24.83;;;11.38;;
24273;SDS011;12392;42.678;23.380;2024-03-23T08:33:08;21.58;;;11.98;;
24273;SDS011;12392;42.678;23.380;2024-03-23T08:35:33;19.65;;;11.00;;
24273;SDS011;12392;42.678;23.380;2024-03-23T08:37:59;18.52;;;12.10;;
24273;SDS011;12392;42.678;23.380;2024-03-23T08:40:25;20.92;;;10.77;;
24273;SDS011;12392;42.678;23.380;2024-03-23T08:42:51;16.58;;;10.15;;
24273;SDS011;12392;42.678;23.380;2024-03-23T08:45:16;15.98;;;9.93;;
24273;SDS011;12392;42.678;23.380;2024-03-23T08:47:42;19.83;;;10.27;;
24273;SDS011;12392;42.678;23.380;2024-03-23T08:50:08;14.73;;;9.88;;
24273;SDS011;12392;42.678;23.380;2024-03-23T08:52:34;21.83;;;9.60;;
24273;SDS011;12392;42.678;23.380;2024-03-23T08:54:59;22.45;;;10.20;;
24273;SDS011;12392;42.678;23.380;2024-03-23T08:57:26;22.70;;;10.35;;
24273;SDS011;12392;42.678;23.380;2024-03-23T08:59:51;14.27;;;9.93;;
24273;SDS011;12392;42.678;23.380;2024-03-23T09:02:17;18.67;;;11.32;;
24273;SDS011;12392;42.678;23.380;2024-03-23T09:04:44;18.73;;;11.25;;
24273;SDS011;12392;42.678;23.380;2024-03-23T09:07:10;22.02;;;11.18;;
24273;SDS011;12392;42.678;23.380;2024-03-23T09:09:37;17.50;;;11.40;;
24273;SDS011;12392;42.678;23.380;2024-03-23T09:12:04;22.10;;;11.57;;
24273;SDS011;12392;42.678;23.380;2024-03-23T09:14:30;22.05;;;11.90;;
24273;SDS011;12392;42.678;23.380;2024-03-23T09:16:55;16.08;;;10.38;;
24273;SDS011;12392;42.678;23.380;2024-03-23T09:19:21;20.48;;;10.05;;
24273;SDS011;12392;42.678;23.380;2024-03-23T09:21:47;22.52;;;9.43;;
24273;SDS011;12392;42.678;23.380;2024-03-23T09:24:12;16.00;;;10.23;;
24273;SDS011;12392;42.678;23.380;2024-03-23T09:26:38;14.93;;;8.23;;
24273;SDS011;12392;42.678;23.380;2024-03-23T09:29:04;13.95;;;8.20;;
24273;SDS011;12392;42.678;23.380;2024-03-23T09:31:29;13.68;;;8.57;;
24273;SDS011;12392;42.678;23.380;2024-03-23T09:33:56;15.82;;;8.65;;
24273;SDS011;12392;42.678;23.380;2024-03-23T09:36:23;14.07;;;8.52;;
24273;SDS011;12392;42.678;23.380;2024-03-23T09:38:48;13.23;;;7.50;;
24273;SDS011;12392;42.678;23.380;2024-03-23T09:41:14;11.82;;;7.60;;
24273;SDS011;12392;42.678;23.380;2024-03-23T09:43:40;15.38;;;7.32;;
24273;SDS011;12392;42.678;23.380;2024-03-23T09:46:06;14.63;;;8.55;;
24273;SDS011;12392;42.678;23.380;2024-03-23T09:48:33;18.13;;;9.75;;
24273;SDS011;12392;42.678;23.380;2024-03-23T09:50:59;18.67;;;10.48;;
24273;SDS011;12392;42.678;23.380;2024-03-23T09:53:24;13.20;;;8.23;;
24273;SDS011;12392;42.678;23.380;2024-03-23T09:55:50;18.00;;;8.20;;
24273;SDS011;12392;42.678;23.380;2024-03-23T09:58:16;16.88;;;8.10;;
24273;SDS011;12392;42.678;23.380;2024-03-23T10:00:43;13.55;;;8.70;;
24273;SDS011;12392;42.678;23.380;2024-03-23T10:03:09;14.13;;;8.80;;
24273;SDS011;12392;42.678;23.380;2024-03-23T10:05:36;19.25;;;8.90;;
24273;SDS011;12392;42.678;23.380;2024-03-23T10:10:43;15.57;;;9.73;;
24273;SDS011;12392;42.678;23.380;2024-03-23T10:13:09;16.40;;;8.95;;
24273;SDS011;12392;42.678;23.380;2024-03-23T10:15:37;13.15;;;8.77;;
24273;SDS011;12392;42.678;23.380;2024-03-23T10:20:41;14.63;;;8.45;;
24273;SDS011;12392;42.678;23.380;2024-03-23T10:23:07;14.02;;;8.40;;
24273;SDS011;12392;42.678;23.380;2024-03-23T10:25:41;15.48;;;8.18;;
24273;SDS011;12392;42.678;23.380;2024-03-23T10:28:06;14.02;;;8.13;;
24273;SDS011;12392;42.678;23.380;2024-03-23T10:30:32;17.73;;;8.70;;
24273;SDS011;12392;42.678;23.380;2024-03-23T10:33:10;14.05;;;8.23;;
24273;SDS011;12392;42.678;23.380;2024-03-23T10:35:36;20.10;;;9.40;;
24273;SDS011;12392;42.678;23.380;2024-03-23T10:38:06;15.68;;;9.27;;
24273;SDS011;12392;42.678;23.380;2024-03-23T10:40:35;22.38;;;12.88;;
24273;SDS011;12392;42.678;23.380;2024-03-23T10:43:05;16.85;;;9.75;;
24273;SDS011;12392;42.678;23.380;2024-03-23T10:45:32;18.90;;;8.88;;
24273;SDS011;12392;42.678;23.380;2024-03-23T10:47:57;15.57;;;8.40;;
24273;SDS011;12392;42.678;23.380;2024-03-23T10:50:23;24.85;;;10.30;;
24273;SDS011;12392;42.678;23.380;2024-03-23T10:52:49;17.52;;;8.27;;
24273;SDS011;12392;42.678;23.380;2024-03-23T10:55:15;16.33;;;8.45;;
24273;SDS011;12392;42.678;23.380;2024-03-23T10:57:55;19.30;;;8.25;;
24273;SDS011;12392;42.678;23.380;2024-03-23T11:00:23;14.55;;;8.73;;
24273;SDS011;12392;42.678;23.380;2024-03-23T11:02:49;25.92;;;8.70;;
24273;SDS011;12392;42.678;23.380;2024-03-23T11:07:56;13.55;;;7.88;;
24273;SDS011;12392;42.678;23.380;2024-03-23T11:10:26;12.10;;;7.70;;
24273;SDS011;12392;42.678;23.380;2024-03-23T11:12:58;13.00;;;8.00;;
24273;SDS011;12392;42.678;23.380;2024-03-23T11:15:43;15.50;;;7.60;;
24273;SDS011;12392;42.678;23.380;2024-03-23T11:18:08;19.10;;;7.40;;
24273;SDS011;12392;42.678;23.380;2024-03-23T11:20:35;12.82;;;6.18;;
24273;SDS011;12392;42.678;23.380;2024-03-23T11:23:01;9.30;;;7.20;;
24273;SDS011;12392;42.678;23.380;2024-03-23T11:25:28;10.23;;;7.13;;
24273;SDS011;12392;42.678;23.380;2024-03-23T11:27:55;11.60;;;6.95;;
24273;SDS011;12392;42.678;23.380;2024-03-23T11:30:25;11.25;;;6.07;;
24273;SDS011;12392;42.678;23.380;2024-03-23T11:32:54;8.27;;;6.38;;
24273;SDS011;12392;42.678;23.380;2024-03-23T11:35:30;9.77;;;6.15;;
24273;SDS011;12392;42.678;23.380;2024-03-23T11:38:04;12.50;;;6.75;;
24273;SDS011;12392;42.678;23.380;2024-03-23T11:40:31;13.75;;;6.75;;
24273;SDS011;12392;42.678;23.380;2024-03-23T11:42:58;11.90;;;6.30;;
24273;SDS011;12392;42.678;23.380;2024-03-23T11:45:25;12.57;;;6.18;;
24273;SDS011;12392;42.678;23.380;2024-03-23T11:48:09;9.32;;;6.18;;
24273;SDS011;12392;42.678;23.380;2024-03-23T11:50:42;13.68;;;6.78;;
24273;SDS011;12392;42.678;23.380;2024-03-23T11:53:17;12.45;;;6.60;;
24273;SDS011;12392;42.678;23.380;2024-03-23T11:58:19;14.38;;;6.93;;
24273;SDS011;12392;42.678;23.380;2024-03-23T12:00:58;8.93;;;6.38;;
24273;SDS011;12392;42.678;23.380;2024-03-23T12:03:25;12.20;;;6.53;;
24273;SDS011;12392;42.678;23.380;2024-03-23T12:05:53;9.90;;;6.20;;
24273;SDS011;12392;42.678;23.380;2024-03-23T12:11:06;8.70;;;6.18;;
24273;SDS011;12392;42.678;23.380;2024-03-23T12:13:36;9.20;;;5.88;;
24273;SDS011;12392;42.678;23.380;2024-03-23T12:16:09;17.38;;;6.80;;
24273;SDS011;12392;42.678;23.380;2024-03-23T12:18:36;9.90;;;6.03;;
24273;SDS011;12392;42.678;23.380;2024-03-23T12:21:03;14.55;;;6.93;;
24273;SDS011;12392;42.678;23.380;2024-03-23T12:23:29;12.00;;;6.00;;
24273;SDS011;12392;42.678;23.380;2024-03-23T12:25:55;11.32;;;6.88;;
24273;SDS011;12392;42.678;23.380;2024-03-23T12:28:20;15.13;;;6.30;;
24273;SDS011;12392;42.678;23.380;2024-03-23T12:30:46;10.73;;;7.35;;
24273;SDS011;12392;42.678;23.380;2024-03-23T12:33:11;18.08;;;6.32;;
24273;SDS011;12392;42.678;23.380;2024-03-23T12:35:37;12.02;;;5.75;;
24273;SDS011;12392;42.678;23.380;2024-03-23T12:38:03;10.15;;;5.43;;
24273;SDS011;12392;42.678;23.380;2024-03-23T12:40:29;7.88;;;5.63;;
24273;SDS011;12392;42.678;23.380;2024-03-23T12:42:54;7.50;;;4.50;;
24273;SDS011;12392;42.678;23.380;2024-03-23T12:45:21;6.50;;;3.88;;
24273;SDS011;12392;42.678;23.380;2024-03-23T12:47:47;9.85;;;4.57;;
24273;SDS011;12392;42.678;23.380;2024-03-23T12:50:13;10.00;;;3.72;;
24273;SDS011;12392;42.678;23.380;2024-03-23T12:52:38;10.18;;;4.32;;
24273;SDS011;12392;42.678;23.380;2024-03-23T12:55:04;8.20;;;4.25;;
24273;SDS011;12392;42.678;23.380;2024-03-23T12:57:30;9.68;;;5.05;;
24273;SDS011;12392;42.678;23.380;2024-03-23T12:59:57;8.65;;;4.55;;
24273;SDS011;12392;42.678;23.380;2024-03-23T13:02:22;8.85;;;4.57;;
24273;SDS011;12392;42.678;23.380;2024-03-23T13:04:54;7.32;;;4.75;;
24273;SDS011;12392;42.678;23.380;2024-03-23T13:07:20;9.52;;;3.78;;
24273;SDS011;12392;42.678;23.380;2024-03-23T13:09:49;6.63;;;3.35;;
24273;SDS011;12392;42.678;23.380;2024-03-23T13:12:15;5.78;;;3.53;;
24273;SDS011;12392;42.678;23.380;2024-03-23T13:14:43;6.90;;;4.30;;
24273;SDS011;12392;42.678;23.380;2024-03-23T13:17:09;14.50;;;5.78;;
24273;SDS011;12392;42.678;23.380;2024-03-23T13:19:35;7.90;;;4.95;;
24273;SDS011;12392;42.678;23.380;2024-03-23T13:22:01;12.43;;;4.15;;
24273;SDS011;12392;42.678;23.380;2024-03-23T13:24:27;9.20;;;4.10;;
24273;SDS011;12392;42.678;23.380;2024-03-23T13:26:54;12.00;;;4.60;;
24273;SDS011;12392;42.678;23.380;2024-03-23T13:29:20;6.88;;;4.50;;
24273;SDS011;12392;42.678;23.380;2024-03-23T13:31:46;8.23;;;4.40;;
24273;SDS011;12392;42.678;23.380;2024-03-23T13:34:15;7.28;;;5.15;;
24273;SDS011;12392;42.678;23.380;2024-03-23T13:36:41;9.55;;;4.85;;
24273;SDS011;12392;42.678;23.380;2024-03-23T13:39:08;10.05;;;4.50;;
24273;SDS011;12392;42.678;23.380;2024-03-23T13:41:45;11.10;;;4.65;;
24273;SDS011;12392;42.678;23.380;2024-03-23T13:44:11;58.05;;;5.57;;
24273;SDS011;12392;42.678;23.380;2024-03-23T13:46:41;8.52;;;4.10;;
24273;SDS011;12392;42.678;23.380;2024-03-23T13:49:18;9.60;;;4.47;;
24273;SDS011;12392;42.678;23.380;2024-03-23T13:51:52;9.95;;;3.90;;
24273;SDS011;12392;42.678;23.380;2024-03-23T13:54:19;7.90;;;3.65;;
24273;SDS011;12392;42.678;23.380;2024-03-23T13:56:45;11.77;;;4.07;;
24273;SDS011;12392;42.678;23.380;2024-03-23T13:59:11;7.57;;;3.63;;
24273;SDS011;12392;42.678;23.380;2024-03-23T14:01:37;8.93;;;3.97;;
24273;SDS011;12392;42.678;23.380;2024-03-23T14:04:02;8.70;;;3.92;;
24273;SDS011;12392;42.678;23.380;2024-03-23T14:06:28;10.98;;;3.70;;
24273;SDS011;12392;42.678;23.380;2024-03-23T14:08:54;4.75;;;3.17;;
24273;SDS011;12392;42.678;23.380;2024-03-23T14:11:19;6.45;;;3.28;;
24273;SDS011;12392;42.678;23.380;2024-03-23T14:13:45;5.80;;;2.97;;
24273;SDS011;12392;42.678;23.380;2024-03-23T14:16:10;5.45;;;2.80;;
24273;SDS011;12392;42.678;23.380;2024-03-23T14:18:36;5.05;;;2.63;;
24273;SDS011;12392;42.678;23.380;2024-03-23T14:21:02;7.28;;;2.88;;
24273;SDS011;12392;42.678;23.380;2024-03-23T14:23:28;7.32;;;3.50;;
24273;SDS011;12392;42.678;23.380;2024-03-23T14:25:55;12.38;;;3.20;;
24273;SDS011;12392;42.678;23.380;2024-03-23T14:28:22;3.22;;;2.17;;
24273;SDS011;12392;42.678;23.380;2024-03-23T14:30:51;3.03;;;1.95;;
24273;SDS011;12392;42.678;23.380;2024-03-23T14:33:17;3.60;;;2.28;;
24273;SDS011;12392;42.678;23.380;2024-03-23T14:35:43;5.20;;;2.88;;
24273;SDS011;12392;42.678;23.380;2024-03-23T14:38:24;4.13;;;2.08;;
24273;SDS011;12392;42.678;23.380;2024-03-23T14:40:50;5.55;;;2.63;;
24273;SDS011;12392;42.678;23.380;2024-03-23T14:43:19;7.07;;;3.00;;
24273;SDS011;12392;42.678;23.380;2024-03-23T14:48:39;5.00;;;2.40;;
24273;SDS011;12392;42.678;23.380;2024-03-23T14:51:06;4.75;;;2.20;;
24273;SDS011;12392;42.678;23.380;2024-03-23T14:53:36;3.58;;;1.67;;
24273;SDS011;12392;42.678;23.380;2024-03-23T14:56:05;6.35;;;2.08;;
24273;SDS011;12392;42.678;23.380;2024-03-23T14:58:31;4.75;;;2.45;;
24273;SDS011;12392;42.678;23.380;2024-03-23T15:01:00;10.70;;;2.28;;
24273;SDS011;12392;42.678;23.380;2024-03-23T15:03:27;2.95;;;1.75;;
24273;SDS011;12392;42.678;23.380;2024-03-23T15:05:53;3.47;;;1.35;;
24273;SDS011;12392;42.678;23.380;2024-03-23T15:08:20;3.42;;;1.30;;
24273;SDS011;12392;42.678;23.380;2024-03-23T15:10:45;3.08;;;2.47;;
24273;SDS011;12392;42.678;23.380;2024-03-23T15:13:11;3.78;;;2.70;;
24273;SDS011;12392;42.678;23.380;2024-03-23T15:15:41;8.57;;;2.72;;
24273;SDS011;12392;42.678;23.380;2024-03-23T15:18:12;5.45;;;2.53;;
24273;SDS011;12392;42.678;23.380;2024-03-23T15:20:38;6.43;;;2.45;;
24273;SDS011;12392;42.678;23.380;2024-03-23T15:23:04;3.90;;;2.47;;
24273;SDS011;12392;42.678;23.380;2024-03-23T15:25:30;3.35;;;2.08;;